createdAt,value
2022-08-12T00:00:04.989Z,0.00
2022-08-12T00:01:04.971Z,0.00
2022-08-12T00:02:05.889Z,0.00
2022-08-12T00:03:04.956Z,0.00
2022-08-12T00:04:04.940Z,0.00
2022-08-12T00:05:04.910Z,0.00
2022-08-12T00:06:05.307Z,0.00
2022-08-12T00:07:04.875Z,0.00
2022-08-12T00:08:04.879Z,0.00
2022-08-12T00:09:04.867Z,0.00
2022-08-12T00:10:04.902Z,0.00
2022-08-12T00:11:09.716Z,0.00
2022-08-12T00:12:06.514Z,0.00
2022-08-12T00:13:04.810Z,0.00
2022-08-12T00:14:04.820Z,0.00
2022-08-12T00:15:04.777Z,0.00
2022-08-12T00:16:04.779Z,0.00
2022-08-12T00:17:04.753Z,0.00
2022-08-12T00:18:04.738Z,0.00
2022-08-12T00:19:04.825Z,0.00
2022-08-12T00:20:04.731Z,0.00
2022-08-12T00:21:04.717Z,0.00
2022-08-12T00:22:04.751Z,0.00
2022-08-12T00:23:04.667Z,0.00
2022-08-12T00:24:04.690Z,0.00
2022-08-12T00:25:04.659Z,0.00
2022-08-12T00:26:23.416Z,0.00
2022-08-12T00:27:05.609Z,0.00
2022-08-12T00:28:04.598Z,0.00
2022-08-12T00:29:04.594Z,0.00
2022-08-12T00:30:04.683Z,0.00
2022-08-12T00:31:05.355Z,0.00
2022-08-12T00:32:04.636Z,0.00
2022-08-12T00:33:04.534Z,0.00
2022-08-12T00:34:05.260Z,0.00
2022-08-12T00:35:08.650Z,0.00
2022-08-12T00:36:04.495Z,0.00
2022-08-12T00:37:11.321Z,0.00
2022-08-12T00:38:05.517Z,0.00
2022-08-12T00:39:04.455Z,0.00
2022-08-12T00:40:04.761Z,0.00
2022-08-12T00:41:05.431Z,0.00
2022-08-12T00:42:04.420Z,0.00
2022-08-12T00:43:04.464Z,0.00
2022-08-12T00:44:04.400Z,0.00
2022-08-12T00:45:04.400Z,0.00
2022-08-12T00:46:04.407Z,0.00
2022-08-12T00:47:04.619Z,0.00
2022-08-12T00:48:04.330Z,0.00
2022-08-12T00:49:04.395Z,0.00
2022-08-12T00:50:04.340Z,0.00
2022-08-12T00:51:04.305Z,0.00
2022-08-12T00:52:04.282Z,0.00
2022-08-12T00:53:04.284Z,0.00
2022-08-12T00:54:04.255Z,0.00
2022-08-12T00:55:04.336Z,0.00
2022-08-12T00:56:04.231Z,0.00
2022-08-12T00:57:04.227Z,0.00
2022-08-12T00:58:04.200Z,0.00
2022-08-12T00:59:04.471Z,0.00
2022-08-12T01:00:04.231Z,0.00
2022-08-12T01:01:04.222Z,0.00
2022-08-12T01:02:11.903Z,0.00
2022-08-12T01:03:05.166Z,0.00
2022-08-12T01:04:04.128Z,0.00
2022-08-12T01:05:04.187Z,0.00
2022-08-12T01:06:04.183Z,0.00
2022-08-12T01:07:04.096Z,0.00
2022-08-12T01:08:04.076Z,0.00
2022-08-12T01:09:04.057Z,0.00
2022-08-12T01:10:04.062Z,0.00
2022-08-12T01:11:04.048Z,0.00
2022-08-12T01:12:04.008Z,0.00
2022-08-12T01:13:07.445Z,0.00
2022-08-12T01:14:05.002Z,0.00
2022-08-12T01:15:03.978Z,0.00
2022-08-12T01:16:03.977Z,0.00
2022-08-12T01:17:04.003Z,0.00
2022-08-12T01:18:03.937Z,0.00
2022-08-12T01:19:03.945Z,0.00
2022-08-12T01:20:03.919Z,0.00
2022-08-12T01:21:03.944Z,0.00
2022-08-12T01:22:03.928Z,0.00
2022-08-12T01:23:04.152Z,0.00
2022-08-12T01:24:29.924Z,0.00
2022-08-12T01:25:04.845Z,0.00
2022-08-12T01:26:03.835Z,0.00
2022-08-12T01:27:07.641Z,0.00
2022-08-12T01:28:03.811Z,0.00
2022-08-12T01:29:03.793Z,0.00
2022-08-12T01:30:03.791Z,0.00
2022-08-12T01:31:03.774Z,0.00
2022-08-12T01:32:04.935Z,0.00
2022-08-12T01:33:03.734Z,0.00
2022-08-12T01:34:03.772Z,0.00
2022-08-12T01:35:03.713Z,0.00
2022-08-12T01:36:08.364Z,0.00
2022-08-12T01:37:04.724Z,0.00
2022-08-12T01:38:03.694Z,0.00
2022-08-12T01:39:03.680Z,0.00
2022-08-12T01:40:31.378Z,0.00
2022-08-12T01:41:04.783Z,0.00
2022-08-12T01:42:03.634Z,0.00
2022-08-12T01:43:03.603Z,0.00
2022-08-12T01:44:06.324Z,0.00
2022-08-12T01:45:03.584Z,0.00
2022-08-12T01:46:03.572Z,0.00
2022-08-12T01:47:03.611Z,0.00
2022-08-12T01:48:03.889Z,0.00
2022-08-12T01:49:03.549Z,0.00
2022-08-12T01:50:03.512Z,0.00
2022-08-12T01:51:05.282Z,0.00
2022-08-12T01:52:21.381Z,0.00
2022-08-12T01:53:04.480Z,0.00
2022-08-12T01:54:03.480Z,0.00
2022-08-12T01:55:03.470Z,0.00
2022-08-12T01:56:03.443Z,0.00
2022-08-12T01:57:03.525Z,0.00
2022-08-12T01:58:04.237Z,0.00
2022-08-12T01:59:04.400Z,0.00
2022-08-12T02:00:03.390Z,0.00
2022-08-12T02:01:03.433Z,0.00
2022-08-12T02:02:03.380Z,0.00
2022-08-12T02:03:03.336Z,0.00
2022-08-12T02:04:03.345Z,0.00
2022-08-12T02:05:03.343Z,0.00
2022-08-12T02:06:03.331Z,0.00
2022-08-12T02:07:03.333Z,0.00
2022-08-12T02:08:03.345Z,0.00
2022-08-12T02:09:03.291Z,0.00
2022-08-12T02:10:03.293Z,0.00
2022-08-12T02:11:03.237Z,0.00
2022-08-12T02:12:03.246Z,0.00
2022-08-12T02:13:03.196Z,0.00
2022-08-12T02:14:03.192Z,0.00
2022-08-12T02:15:03.215Z,0.00
2022-08-12T02:16:03.166Z,0.00
2022-08-12T02:17:03.181Z,0.00
2022-08-12T02:18:03.143Z,0.00
2022-08-12T02:19:03.156Z,0.00
2022-08-12T02:20:04.123Z,0.00
2022-08-12T02:21:03.804Z,0.00
2022-08-12T02:22:04.823Z,0.00
2022-08-12T02:23:03.108Z,0.00
2022-08-12T02:24:03.064Z,0.00
2022-08-12T02:25:03.324Z,0.00
2022-08-12T02:26:03.043Z,0.00
2022-08-12T02:27:03.062Z,0.00
2022-08-12T02:28:06.092Z,0.00
2022-08-12T02:29:03.993Z,0.00
2022-08-12T02:30:03.001Z,0.00
2022-08-12T02:31:02.981Z,0.00
2022-08-12T02:32:03.000Z,0.00
2022-08-12T02:33:02.950Z,0.00
2022-08-12T02:34:02.983Z,0.00
2022-08-12T02:35:02.947Z,0.00
2022-08-12T02:36:02.921Z,0.00
2022-08-12T02:37:03.931Z,0.00
2022-08-12T02:38:02.903Z,0.00
2022-08-12T02:39:02.874Z,0.00
2022-08-12T02:40:02.848Z,0.00
2022-08-12T02:41:02.854Z,0.00
2022-08-12T02:42:02.835Z,0.00
2022-08-12T02:43:02.831Z,0.00
2022-08-12T02:44:02.787Z,0.00
2022-08-12T02:45:02.794Z,0.00
2022-08-12T02:46:02.830Z,0.00
2022-08-12T02:47:02.771Z,0.00
2022-08-12T02:48:02.756Z,0.00
2022-08-12T02:49:02.750Z,0.00
2022-08-12T02:50:02.716Z,0.00
2022-08-12T02:51:02.715Z,0.00
2022-08-12T02:52:02.736Z,0.00
2022-08-12T02:53:02.724Z,0.00
2022-08-12T02:54:05.497Z,0.00
2022-08-12T02:55:02.666Z,0.00
2022-08-12T02:56:02.666Z,0.00
2022-08-12T02:57:02.624Z,0.00
2022-08-12T02:58:04.234Z,0.00
2022-08-12T02:59:02.610Z,0.00
2022-08-12T03:00:02.591Z,0.00
2022-08-12T03:01:02.657Z,0.00
2022-08-12T03:02:02.549Z,0.00
2022-08-12T03:03:02.576Z,0.00
2022-08-12T03:04:02.532Z,0.00
2022-08-12T03:05:02.570Z,0.00
2022-08-12T03:06:02.495Z,0.00
2022-08-12T03:07:02.508Z,0.00
2022-08-12T03:08:02.518Z,0.00
2022-08-12T03:09:02.475Z,0.00
2022-08-12T03:10:05.515Z,0.00
2022-08-12T03:11:02.441Z,0.00
2022-08-12T03:12:02.478Z,0.00
2022-08-12T03:13:02.441Z,0.00
2022-08-12T03:14:02.399Z,0.00
2022-08-12T03:15:02.383Z,0.00
2022-08-12T03:16:02.366Z,0.00
2022-08-12T03:17:02.396Z,0.00
2022-08-12T03:18:25.746Z,4.00
2022-08-12T03:19:03.325Z,4.00
2022-08-12T03:20:09.998Z,0.00
2022-08-12T03:21:03.302Z,0.00
2022-08-12T03:22:08.539Z,4.00
2022-08-12T03:23:03.292Z,4.00
2022-08-12T03:24:02.301Z,4.00
2022-08-12T03:25:02.247Z,4.00
2022-08-12T03:26:03.168Z,4.00
2022-08-12T03:27:02.233Z,8.00
2022-08-12T03:28:02.203Z,8.00
2022-08-12T03:29:02.235Z,8.00
2022-08-12T03:30:02.295Z,8.00
2022-08-12T03:31:02.167Z,8.00
2022-08-12T03:32:02.149Z,12.00
2022-08-12T03:33:06.252Z,12.00
2022-08-12T03:34:03.307Z,16.00
2022-08-12T03:35:02.121Z,16.00
2022-08-12T03:36:02.095Z,20.00
2022-08-12T03:37:02.080Z,20.00
2022-08-12T03:38:02.068Z,24.00
2022-08-12T03:39:02.103Z,32.00
2022-08-12T03:40:02.105Z,32.00
2022-08-12T03:41:02.053Z,36.00
2022-08-12T03:42:02.010Z,40.00
2022-08-12T03:43:02.005Z,48.00
2022-08-12T03:44:01.990Z,56.00
2022-08-12T03:45:02.115Z,60.00
2022-08-12T03:46:01.969Z,68.00
2022-08-12T03:47:02.615Z,76.00
2022-08-12T03:48:01.924Z,84.00
2022-08-12T03:49:01.925Z,88.00
2022-08-12T03:50:01.909Z,100.00
2022-08-12T03:51:01.918Z,112.00
2022-08-12T03:52:01.888Z,120.00
2022-08-12T03:53:01.854Z,132.00
2022-08-12T03:54:01.839Z,144.00
2022-08-12T03:55:01.878Z,156.00
2022-08-12T03:56:01.844Z,172.00
2022-08-12T03:57:01.809Z,180.00
2022-08-12T03:58:01.786Z,200.00
2022-08-12T03:59:01.797Z,212.00
2022-08-12T04:00:13.077Z,224.00
2022-08-12T04:01:02.877Z,244.00
2022-08-12T04:02:01.726Z,256.00
2022-08-12T04:03:01.923Z,272.00
2022-08-12T04:04:01.703Z,288.00
2022-08-12T04:05:01.801Z,308.00
2022-08-12T04:06:01.756Z,324.00
2022-08-12T04:07:01.661Z,340.00
2022-08-12T04:08:01.652Z,360.00
2022-08-12T04:09:01.660Z,376.00
2022-08-12T04:10:01.630Z,392.00
2022-08-12T04:11:05.410Z,412.00
2022-08-12T04:12:01.598Z,428.00
2022-08-12T04:13:01.610Z,448.00
2022-08-12T04:14:01.605Z,464.00
2022-08-12T04:15:01.633Z,484.00
2022-08-12T04:16:01.552Z,504.00
2022-08-12T04:17:01.588Z,520.00
2022-08-12T04:18:06.519Z,540.00
2022-08-12T04:19:02.559Z,556.00
2022-08-12T04:20:01.513Z,576.00
2022-08-12T04:21:01.489Z,592.00
2022-08-12T04:22:03.523Z,612.00
2022-08-12T04:23:01.507Z,628.00
2022-08-12T04:24:01.449Z,652.00
2022-08-12T04:25:01.778Z,668.00
2022-08-12T04:26:01.413Z,684.00
2022-08-12T04:27:01.426Z,700.00
2022-08-12T04:28:13.028Z,720.00
2022-08-12T04:29:02.383Z,732.00
2022-08-12T04:30:31.371Z,748.00
2022-08-12T04:31:02.370Z,768.00
2022-08-12T04:32:01.336Z,784.00
2022-08-12T04:33:01.363Z,800.00
2022-08-12T04:34:01.314Z,816.00
2022-08-12T04:35:01.368Z,828.00
2022-08-12T04:36:01.289Z,844.00
2022-08-12T04:37:01.293Z,860.00
2022-08-12T04:38:01.311Z,876.00
2022-08-12T04:39:01.286Z,888.00
2022-08-12T04:40:01.259Z,904.00
2022-08-12T04:41:01.216Z,916.00
2022-08-12T04:42:01.202Z,932.00
2022-08-12T04:43:01.699Z,944.00
2022-08-12T04:44:02.583Z,956.00
2022-08-12T04:45:01.335Z,968.00
2022-08-12T04:46:01.152Z,984.00
2022-08-12T04:47:01.168Z,996.00
2022-08-12T04:48:01.128Z,1008.00
2022-08-12T04:49:01.129Z,1020.00
2022-08-12T04:50:01.118Z,1032.00
2022-08-12T04:51:01.115Z,1044.00
2022-08-12T04:52:01.082Z,1056.00
2022-08-12T04:53:01.078Z,1068.00
2022-08-12T04:54:01.085Z,1076.00
2022-08-12T04:55:01.057Z,1088.00
2022-08-12T04:56:01.046Z,1100.00
2022-08-12T04:57:04.182Z,1112.00
2022-08-12T04:58:01.001Z,1124.00
2022-08-12T04:59:00.984Z,1132.00
2022-08-12T05:00:00.995Z,1144.00
2022-08-12T05:01:00.963Z,1152.00
2022-08-12T05:02:01.001Z,1164.00
2022-08-12T05:03:00.978Z,1168.00
2022-08-12T05:04:01.652Z,1180.00
2022-08-12T05:05:01.348Z,1192.00
2022-08-12T05:06:00.894Z,1200.00
2022-08-12T05:07:00.886Z,1212.00
2022-08-12T05:08:00.854Z,1220.00
2022-08-12T05:09:00.921Z,1232.00
2022-08-12T05:10:02.456Z,1240.00
2022-08-12T05:11:00.823Z,1248.00
2022-08-12T05:12:00.817Z,1256.00
2022-08-12T05:13:00.795Z,1268.00
2022-08-12T05:14:00.785Z,1276.00
2022-08-12T05:15:00.799Z,1284.00
2022-08-12T05:16:04.487Z,1292.00
2022-08-12T05:17:00.739Z,1300.00
2022-08-12T05:18:02.207Z,1312.00
2022-08-12T05:19:01.701Z,1320.00
2022-08-12T05:20:00.736Z,1328.00
2022-08-12T05:21:00.917Z,1336.00
2022-08-12T05:22:00.701Z,1340.00
2022-08-12T05:23:07.462Z,1352.00
2022-08-12T05:24:01.684Z,1360.00
2022-08-12T05:25:00.695Z,1368.00
2022-08-12T05:26:04.359Z,1376.00
2022-08-12T05:27:00.678Z,1400.00
2022-08-12T05:28:00.591Z,1436.00
2022-08-12T05:29:00.597Z,1472.00
2022-08-12T05:30:07.199Z,1624.00
2022-08-12T05:31:01.551Z,1664.00
2022-08-12T05:32:00.553Z,1516.00
2022-08-12T05:33:00.633Z,1492.00
2022-08-12T05:34:00.530Z,1480.00
2022-08-12T05:35:00.499Z,1440.00
2022-08-12T05:36:00.585Z,1444.00
2022-08-12T05:37:00.493Z,1448.00
2022-08-12T05:38:00.474Z,1456.00
2022-08-12T05:39:00.447Z,1460.00
2022-08-12T05:40:00.562Z,1464.00
2022-08-12T05:41:00.496Z,1472.00
2022-08-12T05:42:00.436Z,1476.00
2022-08-12T05:43:01.084Z,1484.00
2022-08-12T05:44:01.332Z,1488.00
2022-08-12T05:45:00.353Z,1492.00
2022-08-12T05:46:00.651Z,1500.00
2022-08-12T05:47:00.391Z,1508.00
2022-08-12T05:48:00.345Z,1508.00
2022-08-12T05:49:00.318Z,1516.00
2022-08-12T05:50:00.295Z,1520.00
2022-08-12T05:51:00.367Z,1524.00
2022-08-12T05:52:00.277Z,1532.00
2022-08-12T05:53:00.322Z,1536.00
2022-08-12T05:54:00.280Z,1540.00
2022-08-12T05:55:00.245Z,1548.00
2022-08-12T05:56:00.306Z,1552.00
2022-08-12T05:57:00.246Z,1556.00
2022-08-12T05:58:00.225Z,1564.00
2022-08-12T05:59:00.347Z,1564.00
2022-08-12T06:00:00.253Z,1572.00
2022-08-12T06:01:00.159Z,1576.00
2022-08-12T06:02:08.985Z,1580.00
2022-08-12T06:03:01.458Z,1588.00
2022-08-12T06:04:00.126Z,1588.00
2022-08-12T06:05:00.124Z,1596.00
2022-08-12T06:06:00.120Z,1600.00
2022-08-12T06:07:00.073Z,1604.00
2022-08-12T06:08:03.912Z,1604.00
2022-08-12T06:09:00.055Z,1612.00
2022-08-12T06:10:00.051Z,1616.00
2022-08-12T06:11:00.036Z,1616.00
2022-08-12T06:12:05.954Z,1620.00
2022-08-12T06:13:00.991Z,1628.00
2022-08-12T06:13:59.986Z,1628.00
2022-08-12T06:14:59.978Z,1632.00
2022-08-12T06:16:04.173Z,1636.00
2022-08-12T06:16:59.962Z,1640.00
2022-08-12T06:17:59.979Z,1644.00
2022-08-12T06:19:03.878Z,1644.00
2022-08-12T06:20:27.658Z,1648.00
2022-08-12T06:21:01.964Z,1652.00
2022-08-12T06:21:59.901Z,1660.00
2022-08-12T06:22:59.861Z,1656.00
2022-08-12T06:23:59.868Z,1660.00
2022-08-12T06:24:59.855Z,1668.00
2022-08-12T06:25:59.873Z,1668.00
2022-08-12T06:26:59.824Z,1672.00
2022-08-12T06:28:06.496Z,1672.00
2022-08-12T06:29:01.090Z,1676.00
2022-08-12T06:30:10.302Z,1684.00
2022-08-12T06:31:24.838Z,1684.00
2022-08-12T06:32:00.760Z,1684.00
2022-08-12T06:33:11.641Z,1688.00
2022-08-12T06:35:22.555Z,1696.00
2022-08-12T06:35:24.122Z,1696.00
2022-08-12T06:36:00.966Z,1700.00
2022-08-12T06:36:59.693Z,1704.00
2022-08-12T06:37:59.678Z,1704.00
2022-08-12T06:38:59.703Z,1708.00
2022-08-12T06:40:03.614Z,1708.00
2022-08-12T06:40:59.632Z,1712.00
2022-08-12T06:42:05.024Z,1720.00
2022-08-12T06:43:00.599Z,1720.00
2022-08-12T06:44:06.279Z,1724.00
2022-08-12T06:45:00.590Z,1728.00
2022-08-12T06:45:59.609Z,1728.00
2022-08-12T06:46:59.566Z,1732.00
2022-08-12T06:47:59.553Z,1740.00
2022-08-12T06:48:59.644Z,1740.00
2022-08-12T06:49:59.510Z,1744.00
2022-08-12T06:50:59.761Z,1744.00
2022-08-12T06:51:59.552Z,1748.00
2022-08-12T06:52:59.464Z,1752.00
2022-08-12T06:53:59.551Z,1752.00
2022-08-12T06:54:59.455Z,1756.00
2022-08-12T06:55:59.492Z,1764.00
2022-08-12T06:57:04.205Z,1768.00
2022-08-12T06:58:07.507Z,1768.00
2022-08-12T06:59:00.461Z,1768.00
2022-08-12T06:59:59.441Z,1772.00
2022-08-12T07:00:59.406Z,1776.00
2022-08-12T07:01:59.361Z,1780.00
2022-08-12T07:02:59.345Z,1784.00
2022-08-12T07:04:14.252Z,1788.00
2022-08-12T07:05:00.507Z,1792.00
2022-08-12T07:05:59.314Z,1792.00
2022-08-12T07:06:59.294Z,1796.00
2022-08-12T07:07:59.284Z,1800.00
2022-08-12T07:09:00.335Z,1804.00
2022-08-12T07:10:06.110Z,1804.00
2022-08-12T07:11:00.234Z,1812.00
2022-08-12T07:11:59.232Z,1812.00
2022-08-12T07:12:59.197Z,1816.00
2022-08-12T07:14:11.995Z,1820.00
2022-08-12T07:15:00.183Z,1824.00
2022-08-12T07:16:03.267Z,1828.00
2022-08-12T07:16:59.269Z,1836.00
2022-08-12T07:17:59.135Z,1836.00
2022-08-12T07:18:59.136Z,1840.00
2022-08-12T07:20:04.335Z,1844.00
2022-08-12T07:20:59.377Z,1844.00
2022-08-12T07:22:02.099Z,1848.00
2022-08-12T07:22:59.085Z,1852.00
2022-08-12T07:23:59.152Z,1860.00
2022-08-12T07:24:59.344Z,1860.00
2022-08-12T07:25:59.052Z,1864.00
2022-08-12T07:26:59.023Z,1864.00
2022-08-12T07:27:59.375Z,1872.00
2022-08-12T07:28:59.055Z,1872.00
2022-08-12T07:30:04.860Z,1880.00
2022-08-12T07:30:59.957Z,1884.00
2022-08-12T07:31:58.984Z,1888.00
2022-08-12T07:33:01.785Z,1892.00
2022-08-12T07:33:58.926Z,1892.00
2022-08-12T07:34:59.592Z,1900.00
2022-08-12T07:35:58.958Z,1904.00
2022-08-12T07:36:58.888Z,1904.00
2022-08-12T07:37:58.894Z,1904.00
2022-08-12T07:38:58.875Z,1912.00
2022-08-12T07:40:00.439Z,1916.00
2022-08-12T07:40:58.860Z,1920.00
2022-08-12T07:41:58.830Z,1924.00
2022-08-12T07:42:58.818Z,1932.00
2022-08-12T07:44:03.879Z,1932.00
2022-08-12T07:45:03.849Z,1936.00
2022-08-12T07:45:58.794Z,1944.00
2022-08-12T07:46:58.751Z,1944.00
2022-08-12T07:47:58.770Z,1952.00
2022-08-12T07:48:58.742Z,1956.00
2022-08-12T07:50:05.804Z,1956.00
2022-08-12T07:50:59.697Z,1964.00
2022-08-12T07:51:58.705Z,1972.00
2022-08-12T07:52:58.672Z,1972.00
2022-08-12T07:54:03.073Z,1980.00
2022-08-12T07:54:58.698Z,1984.00
2022-08-12T07:55:58.657Z,1992.00
2022-08-12T07:56:58.641Z,1996.00
2022-08-12T07:58:02.562Z,2000.00
2022-08-12T07:58:58.604Z,2004.00
2022-08-12T07:59:58.590Z,2012.00
2022-08-12T08:00:58.571Z,2016.00
2022-08-12T08:02:00.373Z,2020.00
2022-08-12T08:02:58.560Z,2024.00
2022-08-12T08:03:58.546Z,2028.00
2022-08-12T08:04:58.501Z,2036.00
2022-08-12T08:05:58.539Z,2040.00
2022-08-12T08:06:58.491Z,2048.00
2022-08-12T08:07:58.486Z,2048.00
2022-08-12T08:08:58.513Z,2056.00
2022-08-12T08:09:59.525Z,2060.00
2022-08-12T08:11:03.662Z,2064.00
2022-08-12T08:11:59.419Z,2072.00
2022-08-12T08:12:58.478Z,2076.00
2022-08-12T08:13:58.432Z,2084.00
2022-08-12T08:14:58.379Z,2088.00
2022-08-12T08:16:03.503Z,2096.00
2022-08-12T08:16:59.356Z,2100.00
2022-08-12T08:17:58.374Z,2108.00
2022-08-12T08:18:58.338Z,2112.00
2022-08-12T08:20:03.057Z,2116.00
2022-08-12T08:20:59.416Z,2124.00
2022-08-12T08:21:58.624Z,2128.00
2022-08-12T08:22:58.311Z,2136.00
2022-08-12T08:24:04.656Z,2140.00
2022-08-12T08:24:59.277Z,2152.00
2022-08-12T08:25:58.255Z,2156.00
2022-08-12T08:26:58.310Z,2164.00
2022-08-12T08:27:58.215Z,2172.00
2022-08-12T08:28:58.247Z,2180.00
2022-08-12T08:29:58.181Z,2188.00
2022-08-12T08:30:58.190Z,2196.00
2022-08-12T08:31:58.270Z,2204.00
2022-08-12T08:32:58.166Z,2212.00
2022-08-12T08:34:05.039Z,2220.00
2022-08-12T08:34:59.111Z,2228.00
2022-08-12T08:35:58.133Z,2240.00
2022-08-12T08:36:58.109Z,2248.00
2022-08-12T08:37:58.082Z,2256.00
2022-08-12T08:38:58.869Z,2264.00
2022-08-12T08:39:58.119Z,2268.00
2022-08-12T08:40:58.070Z,2276.00
2022-08-12T08:42:15.146Z,2288.00
2022-08-12T08:42:59.019Z,2292.00
2022-08-12T08:43:58.083Z,2308.00
2022-08-12T08:44:58.633Z,2316.00
2022-08-12T08:45:57.989Z,2324.00
2022-08-12T08:46:57.963Z,2332.00
2022-08-12T08:48:00.289Z,2340.00
2022-08-12T08:48:59.634Z,2348.00
2022-08-12T08:49:57.957Z,2360.00
2022-08-12T08:51:04.650Z,2368.00
2022-08-12T08:51:58.899Z,2380.00
2022-08-12T08:52:57.891Z,2388.00
2022-08-12T08:53:57.890Z,2400.00
2022-08-12T08:54:57.862Z,2408.00
2022-08-12T08:56:05.782Z,2416.00
2022-08-12T08:56:58.869Z,2428.00
2022-08-12T08:57:57.817Z,2436.00
2022-08-12T08:58:57.935Z,2444.00
2022-08-12T08:59:57.840Z,2460.00
2022-08-12T09:00:57.777Z,2468.00
2022-08-12T09:01:57.850Z,2476.00
2022-08-12T09:02:59.106Z,2480.00
2022-08-12T09:05:08.566Z,2476.00
2022-08-12T09:05:12.753Z,2500.00
2022-08-12T09:06:02.389Z,2512.00
2022-08-12T09:06:57.721Z,2528.00
2022-08-12T09:08:08.893Z,2540.00
2022-08-12T09:09:02.403Z,2556.00
2022-08-12T09:10:03.539Z,2572.00
2022-08-12T09:12:11.174Z,2592.00
2022-08-12T09:13:01.124Z,2608.00
2022-08-12T09:14:11.502Z,2620.00
2022-08-12T09:14:58.594Z,2616.00
2022-08-12T09:15:59.605Z,2612.00
2022-08-12T09:16:57.565Z,2620.00
2022-08-12T09:17:57.661Z,2632.00
2022-08-12T09:18:57.550Z,2652.00
2022-08-12T09:19:57.650Z,2672.00
2022-08-12T09:20:58.183Z,2692.00
2022-08-12T09:21:57.495Z,2716.00
2022-08-12T09:22:57.568Z,2740.00
2022-08-12T09:25:06.126Z,2796.00
2022-08-12T09:25:57.477Z,2812.00
2022-08-12T09:26:57.450Z,2828.00
2022-08-12T09:28:58.511Z,2832.00
2022-08-12T09:30:11.925Z,2844.00
2022-08-12T09:30:58.944Z,2868.00
2022-08-12T09:32:06.379Z,2888.00
2022-08-12T09:33:14.231Z,2908.00
2022-08-12T09:34:25.615Z,2916.00
2022-08-12T09:34:58.337Z,2936.00
2022-08-12T09:36:03.318Z,2960.00
2022-08-12T09:37:01.647Z,2976.00
2022-08-12T09:37:59.041Z,3000.00
2022-08-12T09:38:59.189Z,3024.00
2022-08-12T09:40:05.413Z,3044.00
2022-08-12T09:42:09.128Z,3068.00
2022-08-12T09:42:33.882Z,3092.00
2022-08-12T09:44:01.203Z,3160.00
2022-08-12T09:45:18.525Z,3188.00
2022-08-12T09:46:12.008Z,3212.00
2022-08-12T09:46:58.179Z,3236.00
2022-08-12T09:48:00.030Z,3256.00
2022-08-12T09:48:57.396Z,3272.00
2022-08-12T09:49:57.823Z,3296.00
2022-08-12T09:51:00.114Z,3324.00
2022-08-12T09:51:57.102Z,3348.00
2022-08-12T09:52:57.442Z,3372.00
2022-08-12T09:54:08.593Z,3396.00
2022-08-12T09:55:02.465Z,3428.00
2022-08-12T09:56:07.329Z,3464.00
2022-08-12T09:57:03.788Z,3496.00
2022-08-12T09:58:46.680Z,3524.00
2022-08-12T09:59:01.367Z,3552.00
2022-08-12T10:00:16.084Z,3604.00
2022-08-12T10:00:58.092Z,3644.00
2022-08-12T10:02:44.155Z,3688.00
2022-08-12T10:02:58.384Z,3744.00
2022-08-12T10:04:04.589Z,3792.00
2022-08-12T10:04:57.945Z,3888.00
2022-08-12T10:06:19.404Z,4156.00
2022-08-12T10:06:58.129Z,4388.00
2022-08-12T10:07:56.897Z,4344.00
2022-08-12T10:08:56.911Z,4140.00
2022-08-12T10:09:59.137Z,4072.00
2022-08-12T10:10:56.870Z,4112.00
2022-08-12T10:12:10.688Z,4180.00
2022-08-12T10:13:06.693Z,4272.00
2022-08-12T10:13:57.858Z,4376.00
2022-08-12T10:14:56.829Z,4504.00
2022-08-12T10:16:01.765Z,4676.00
2022-08-12T10:16:57.801Z,4964.00
2022-08-12T10:18:07.395Z,5560.00
2022-08-12T10:18:57.823Z,20256.00
2022-08-12T10:19:59.661Z,63648.00
2022-08-12T10:20:57.419Z,80896.00
2022-08-12T10:21:57.073Z,82272.00
2022-08-12T10:22:57.049Z,82944.00
2022-08-12T10:23:57.368Z,81920.00
2022-08-12T10:24:56.712Z,80672.00
2022-08-12T10:26:38.186Z,72704.00
2022-08-12T10:26:57.763Z,31776.00
2022-08-12T10:28:05.805Z,9312.00
2022-08-12T10:29:02.694Z,7936.00
2022-08-12T10:30:03.016Z,7336.00
2022-08-12T10:30:58.248Z,6828.00
2022-08-12T10:32:20.870Z,6128.00
2022-08-12T10:32:58.572Z,5516.00
2022-08-12T10:34:06.414Z,5180.00
2022-08-12T10:34:57.614Z,5036.00
2022-08-12T10:35:56.783Z,4992.00
2022-08-12T10:36:56.538Z,5008.00
2022-08-12T10:38:37.133Z,5032.00
2022-08-12T10:38:57.514Z,5052.00
2022-08-12T10:40:06.923Z,5072.00
2022-08-12T10:40:57.724Z,5096.00
2022-08-12T10:41:56.482Z,5112.00
2022-08-12T10:42:56.469Z,5136.00
2022-08-12T10:43:57.065Z,5160.00
2022-08-12T10:44:56.461Z,5172.00
2022-08-12T10:45:58.350Z,5192.00
2022-08-12T10:46:56.449Z,5204.00
2022-08-12T10:48:20.298Z,5220.00
2022-08-12T10:49:05.706Z,5244.00
2022-08-12T10:50:03.226Z,5260.00
2022-08-12T10:51:03.325Z,5280.00
2022-08-12T10:52:32.437Z,5308.00
2022-08-12T10:52:57.342Z,5324.00
2022-08-12T10:54:00.538Z,5352.00
2022-08-12T10:54:56.367Z,5384.00
2022-08-12T10:55:56.608Z,5416.00
2022-08-12T10:56:56.338Z,5460.00
2022-08-12T10:58:15.195Z,5520.00
2022-08-12T10:58:57.253Z,5580.00
2022-08-12T11:00:34.503Z,5644.00
2022-08-12T11:01:49.097Z,5728.00
2022-08-12T11:04:19.845Z,5864.00
2022-08-12T11:04:25.452Z,6168.00
2022-08-12T11:04:35.952Z,6016.00
2022-08-12T11:04:57.538Z,6408.00
2022-08-12T11:07:05.535Z,8704.00
2022-08-12T11:07:08.559Z,6856.00
2022-08-12T11:08:34.581Z,38048.00
2022-08-12T11:08:57.262Z,64128.00
2022-08-12T11:10:01.565Z,68224.00
2022-08-12T11:10:57.112Z,61888.00
2022-08-12T11:12:36.017Z,36320.00
2022-08-12T11:12:59.890Z,10772.00
2022-08-12T11:13:56.087Z,10076.00
2022-08-12T11:14:56.094Z,10448.00
2022-08-12T11:16:19.175Z,10236.00
2022-08-12T11:17:33.775Z,9676.00
2022-08-12T11:17:57.487Z,9364.00
2022-08-12T11:18:57.156Z,9108.00
2022-08-12T11:19:56.045Z,8840.00
2022-08-12T11:20:57.873Z,8492.00
2022-08-12T11:22:01.240Z,8104.00
2022-08-12T11:22:58.543Z,7880.00
2022-08-12T11:23:55.971Z,7780.00
2022-08-12T11:24:55.936Z,7688.00
2022-08-12T11:26:00.496Z,7640.00
2022-08-12T11:27:55.888Z,7728.00
2022-08-12T11:28:59.406Z,7752.00
2022-08-12T11:30:05.297Z,7808.00
2022-08-12T11:30:56.847Z,7840.00
2022-08-12T11:32:02.513Z,7792.00
2022-08-12T11:32:57.584Z,7748.00
2022-08-12T11:34:06.771Z,7728.00
2022-08-12T11:34:59.205Z,7672.00
2022-08-12T11:35:59.608Z,7632.00
2022-08-12T11:36:55.752Z,7616.00
2022-08-12T11:37:58.909Z,7640.00
2022-08-12T11:38:55.754Z,7684.00
2022-08-12T11:40:56.695Z,7932.00
2022-08-12T11:41:55.694Z,8220.00
2022-08-12T11:43:00.332Z,8808.00
2022-08-12T11:43:58.534Z,12096.00
2022-08-12T11:44:55.693Z,47776.00
2022-08-12T11:45:56.783Z,77376.00
2022-08-12T11:46:55.623Z,78560.00
2022-08-12T11:47:55.698Z,79264.00
2022-08-12T11:48:55.598Z,75936.00
2022-08-12T11:49:55.640Z,73152.00
2022-08-12T11:50:55.624Z,69856.00
2022-08-12T11:51:57.919Z,67552.00
2022-08-12T11:52:57.183Z,67328.00
2022-08-12T11:53:57.725Z,64064.00
2022-08-12T11:54:55.891Z,64096.00
2022-08-12T11:55:55.562Z,65408.00
2022-08-12T11:56:59.620Z,66624.00
2022-08-12T11:58:17.241Z,71680.00
2022-08-12T12:02:01.388Z,78016.00
2022-08-12T12:02:02.923Z,74592.00
2022-08-12T12:02:56.541Z,74624.00
2022-08-12T12:03:55.456Z,74176.00
2022-08-12T12:04:55.430Z,71680.00
2022-08-12T12:05:55.400Z,67136.00
2022-08-12T12:06:56.394Z,68384.00
2022-08-12T12:08:38.252Z,73536.00
2022-08-12T12:08:56.423Z,79360.00
2022-08-12T12:09:55.733Z,79488.00
2022-08-12T12:10:55.347Z,81728.00
2022-08-12T12:11:55.337Z,78752.00
2022-08-12T12:12:55.350Z,74304.00
2022-08-12T12:14:07.979Z,68864.00
2022-08-12T12:14:58.627Z,39360.00
2022-08-12T12:15:55.288Z,15872.00
2022-08-12T12:16:55.313Z,13804.00
2022-08-12T12:17:55.894Z,13052.00
2022-08-12T12:18:55.354Z,12672.00
2022-08-12T12:19:56.206Z,12444.00
2022-08-12T12:20:55.270Z,12344.00
2022-08-12T12:21:55.229Z,12332.00
2022-08-12T12:22:55.205Z,12328.00
2022-08-12T12:23:55.193Z,12276.00
2022-08-12T12:24:56.224Z,12304.00
2022-08-12T12:26:06.894Z,12348.00
2022-08-12T12:27:00.221Z,12496.00
2022-08-12T12:28:04.107Z,12624.00
2022-08-12T12:28:56.179Z,12800.00
2022-08-12T12:30:18.006Z,13040.00
2022-08-12T12:30:56.114Z,13388.00
2022-08-12T12:32:10.414Z,13804.00
2022-08-12T12:32:56.138Z,15360.00